Time;durP1;ratioP1;P1;durP2;ratioP2;P2;SDS_P1;SDS_P2;PMS_P1;PMS_P2;Temp;Humidity;BMP_temperature;BMP_pressure;BME280_temperature;BME280_humidity;BME280_pressure;Samples;Min_cycle;Max_cycle;Signal;HPM_P1;HPM_P2
2021/03/14 00:01:40;;;;;;;3.00;1.03;;;5.60;99.90;;;;;;4959560;28;20496;-85
2021/03/14 00:04:08;;;;;;;1.43;0.70;;;5.50;99.90;;;;;;4953651;29;20543;-85
2021/03/14 00:06:34;;;;;;;1.60;0.97;;;5.60;99.90;;;;;;4949550;29;20505;-85
2021/03/14 00:09:02;;;;;;;2.07;0.90;;;5.60;99.90;;;;;;4957531;29;20516;-84
2021/03/14 00:11:28;;;;;;;0.90;0.77;;;5.60;99.90;;;;;;4956755;28;20458;-85
2021/03/14 00:13:55;;;;;;;2.00;1.00;;;5.60;99.90;;;;;;4953376;29;20516;-85
2021/03/14 00:16:22;;;;;;;0.90;0.70;;;5.60;99.90;;;;;;4954748;29;20497;-85
2021/03/14 00:18:53;;;;;;;0.93;0.73;;;5.70;99.90;;;;;;4949188;29;20455;-85
2021/03/14 00:21:23;;;;;;;1.03;0.80;;;5.70;99.90;;;;;;4940182;29;20566;-84
2021/03/14 00:23:49;;;;;;;1.20;0.70;;;5.80;99.90;;;;;;4939067;29;20437;-84
2021/03/14 00:26:16;;;;;;;3.20;1.20;;;5.70;99.90;;;;;;4937726;29;20820;-85
2021/03/14 00:28:42;;;;;;;2.80;1.50;;;5.80;99.90;;;;;;4938390;29;20465;-84
2021/03/14 00:31:09;;;;;;;2.93;0.90;;;5.80;99.90;;;;;;4938044;29;20456;-84
2021/03/14 00:33:35;;;;;;;0.73;0.70;;;5.80;99.90;;;;;;4937206;29;20461;-84
2021/03/14 00:36:01;;;;;;;0.73;0.67;;;5.80;99.90;;;;;;4936617;29;20486;-85
2021/03/14 00:38:28;;;;;;;0.83;0.70;;;5.70;99.90;;;;;;4946082;29;20451;-84
2021/03/14 00:40:54;;;;;;;3.90;0.80;;;5.60;99.90;;;;;;4950947;29;20457;-84
2021/03/14 00:43:20;;;;;;;2.70;0.70;;;5.60;99.90;;;;;;4946372;29;20456;-84
2021/03/14 00:45:47;;;;;;;2.30;0.80;;;5.60;99.90;;;;;;4941646;29;21128;-84
2021/03/14 00:48:14;;;;;;;0.90;0.53;;;5.50;99.90;;;;;;4941515;29;20551;-85
2021/03/14 00:50:43;;;;;;;0.60;0.50;;;5.50;99.90;;;;;;4941050;29;20453;-84
2021/03/14 00:53:10;;;;;;;1.10;0.60;;;5.50;99.90;;;;;;4939827;29;20508;-83
2021/03/14 00:55:37;;;;;;;1.73;0.60;;;5.50;99.90;;;;;;4941445;29;20477;-84
2021/03/14 00:58:05;;;;;;;3.40;1.37;;;5.50;99.90;;;;;;4963102;28;20536;-84
2021/03/14 01:00:32;;;;;;;1.10;0.57;;;5.50;99.90;;;;;;4962609;28;20492;-84
2021/03/14 01:02:59;;;;;;;1.00;0.70;;;5.50;99.90;;;;;;4962115;28;20457;-84
2021/03/14 01:05:26;;;;;;;1.93;1.00;;;5.40;99.90;;;;;;4959624;28;20463;-84
2021/03/14 01:07:52;;;;;;;1.07;0.80;;;5.50;99.90;;;;;;4956725;29;20476;-84
2021/03/14 01:10:20;;;;;;;0.83;0.60;;;5.40;99.90;;;;;;4951335;29;20461;-84
2021/03/14 01:12:48;;;;;;;1.13;0.77;;;5.30;99.90;;;;;;4944861;29;20453;-84
2021/03/14 01:15:16;;;;;;;1.53;1.00;;;5.10;99.90;;;;;;4942491;29;20907;-84
2021/03/14 01:17:43;;;;;;;1.00;0.60;;;5.10;99.90;;;;;;4945172;29;20492;-85
2021/03/14 01:20:12;;;;;;;0.73;0.53;;;5.00;99.90;;;;;;4942990;29;20468;-85
2021/03/14 01:22:39;;;;;;;0.93;0.57;;;5.00;99.90;;;;;;4941231;29;20459;-84
2021/03/14 01:28:52;;;;;;;0.80;0.70;;;5.00;99.90;;;;;;4811346;29;21089;-84
2021/03/14 01:31:21;;;;;;;1.57;0.73;;;5.00;99.90;;;;;;4932211;29;20456;-84
2021/03/14 01:33:48;;;;;;;0.80;0.67;;;4.90;99.90;;;;;;4938853;29;20437;-84
2021/03/14 01:36:18;;;;;;;1.30;0.80;;;4.90;99.90;;;;;;4938799;29;20490;-84
2021/03/14 01:38:48;;;;;;;1.10;0.63;;;4.90;99.90;;;;;;4938896;29;20940;-84
2021/03/14 01:41:14;;;;;;;1.00;0.50;;;4.90;99.90;;;;;;4938296;29;20457;-83
2021/03/14 01:43:41;;;;;;;3.43;1.03;;;4.90;99.90;;;;;;4953240;28;20461;-84
2021/03/14 01:46:11;;;;;;;1.47;1.00;;;5.00;99.90;;;;;;4939373;29;20553;-84
2021/03/14 01:48:40;;;;;;;1.73;0.70;;;5.00;99.90;;;;;;4943949;29;20444;-84
2021/03/14 01:51:07;;;;;;;1.80;0.73;;;5.00;99.90;;;;;;4958963;29;20481;-84
2021/03/14 01:53:37;;;;;;;1.83;1.00;;;5.00;99.90;;;;;;4947968;28;20460;-84
2021/03/14 01:56:05;;;;;;;1.03;0.90;;;5.00;99.90;;;;;;4939682;29;20486;-84
2021/03/14 01:58:36;;;;;;;1.07;0.77;;;5.00;99.90;;;;;;4944531;29;20464;-84
2021/03/14 02:01:03;;;;;;;0.90;0.50;;;5.00;99.90;;;;;;4959968;29;20475;-84
2021/03/14 02:03:33;;;;;;;0.70;0.60;;;5.00;99.90;;;;;;4939939;29;20519;-84
2021/03/14 02:06:00;;;;;;;1.73;0.80;;;5.00;99.90;;;;;;4959093;29;20437;-84
2021/03/14 02:08:26;;;;;;;1.43;0.57;;;4.90;99.90;;;;;;4949464;29;20452;-84
2021/03/14 02:10:53;;;;;;;1.13;0.50;;;4.90;99.90;;;;;;4954394;29;20864;-84
2021/03/14 02:13:27;;;;;;;0.80;0.50;;;4.90;99.90;;;;;;4939528;29;20526;-84
2021/03/14 02:15:56;;;;;;;0.70;0.60;;;5.00;99.90;;;;;;4940021;29;20481;-84
2021/03/14 02:18:25;;;;;;;0.70;0.63;;;5.00;99.90;;;;;;4939938;29;20939;-84
2021/03/14 02:20:53;;;;;;;1.13;0.80;;;5.00;99.90;;;;;;4939610;29;20506;-84
2021/03/14 02:23:29;;;;;;;0.73;0.47;;;5.10;99.90;;;;;;4938418;29;21113;-84
2021/03/14 02:26:03;;;;;;;1.40;0.63;;;5.10;99.90;;;;;;4938046;29;20477;-84
2021/03/14 02:28:32;;;;;;;0.70;0.50;;;5.00;99.90;;;;;;4938421;29;20528;-84
2021/03/14 02:31:05;;;;;;;0.70;0.50;;;5.10;99.90;;;;;;4938249;29;20516;-84
2021/03/14 02:33:34;;;;;;;1.07;0.50;;;5.10;99.90;;;;;;4938865;29;20891;-85
2021/03/14 02:36:00;;;;;;;0.93;0.80;;;5.10;99.90;;;;;;4937505;29;20555;-85
2021/03/14 02:38:27;;;;;;;0.90;0.90;;;5.10;99.90;;;;;;4937859;29;20524;-85
2021/03/14 02:40:56;;;;;;;0.80;0.67;;;5.10;99.90;;;;;;4938182;29;20435;-84
2021/03/14 02:43:24;;;;;;;1.13;0.70;;;5.00;99.90;;;;;;4938774;29;20456;-84
2021/03/14 02:45:53;;;;;;;2.50;0.90;;;5.00;99.90;;;;;;4937453;29;20446;-85
2021/03/14 02:48:21;;;;;;;1.10;1.00;;;4.90;99.90;;;;;;4940901;29;20480;-84
2021/03/14 02:50:48;;;;;;;1.10;0.90;;;4.90;99.90;;;;;;4959671;29;20462;-84
2021/03/14 02:53:16;;;;;;;0.97;0.87;;;5.00;99.90;;;;;;4959880;28;20455;-84
2021/03/14 02:55:43;;;;;;;2.47;0.97;;;4.90;99.90;;;;;;4960597;28;20484;-83
2021/03/14 02:58:11;;;;;;;1.70;1.07;;;4.90;99.90;;;;;;4961293;28;20474;-83
2021/03/14 03:00:40;;;;;;;2.07;1.10;;;4.90;99.90;;;;;;4960665;28;20460;-83
2021/03/14 03:03:07;;;;;;;1.20;1.10;;;4.80;99.90;;;;;;4950746;29;20459;-84
2021/03/14 03:05:35;;;;;;;2.97;1.30;;;4.90;99.90;;;;;;4938458;29;20865;-84
2021/03/14 03:08:03;;;;;;;1.63;1.53;;;4.90;99.90;;;;;;4939311;29;20478;-85
2021/03/14 03:10:32;;;;;;;3.13;1.67;;;5.00;99.90;;;;;;4938900;29;20503;-84
2021/03/14 03:13:01;;;;;;;4.30;1.60;;;5.00;99.90;;;;;;4942865;29;20459;-84
2021/03/14 03:15:28;;;;;;;3.43;1.57;;;5.00;99.90;;;;;;4960495;28;20555;-84
2021/03/14 03:17:55;;;;;;;1.50;1.40;;;5.00;99.90;;;;;;4955176;29;20548;-84
2021/03/14 03:20:23;;;;;;;2.63;1.23;;;5.00;99.90;;;;;;4959825;28;20474;-85
2021/03/14 03:22:50;;;;;;;1.80;1.17;;;5.00;99.90;;;;;;4942172;29;20464;-85
2021/03/14 03:25:16;;;;;;;2.03;1.27;;;5.00;99.90;;;;;;4939147;29;20454;-84
2021/03/14 03:27:42;;;;;;;1.77;1.40;;;5.00;99.90;;;;;;4938572;29;20496;-85
2021/03/14 03:30:12;;;;;;;1.40;1.30;;;5.00;99.90;;;;;;4945161;29;20452;-85
2021/03/14 03:32:39;;;;;;;1.37;1.27;;;5.00;99.90;;;;;;4950790;29;20457;-85
2021/03/14 03:35:07;;;;;;;2.10;1.07;;;5.00;99.90;;;;;;4939027;29;20479;-85
2021/03/14 03:37:35;;;;;;;1.67;1.20;;;5.00;99.90;;;;;;4939618;29;20479;-85
2021/03/14 03:40:02;;;;;;;3.40;1.10;;;5.00;99.90;;;;;;4941136;29;20851;-85
2021/03/14 03:42:33;;;;;;;2.30;1.20;;;5.00;99.90;;;;;;4939047;29;20797;-86
2021/03/14 03:45:01;;;;;;;1.00;0.90;;;5.00;99.90;;;;;;4943717;29;20460;-85
2021/03/14 03:47:28;;;;;;;1.73;1.10;;;5.00;99.90;;;;;;4950070;29;20472;-85
2021/03/14 03:49:57;;;;;;;4.30;1.27;;;5.00;99.90;;;;;;4953295;29;20467;-86
2021/03/14 03:52:25;;;;;;;2.27;1.47;;;4.90;99.90;;;;;;4946295;29;20448;-85
2021/03/14 03:54:53;;;;;;;2.92;0.90;;;4.80;99.90;;;;;;4951015;29;20517;-84
2021/03/14 03:57:20;;;;;;;1.20;1.00;;;4.90;99.90;;;;;;4951142;29;20232;-84
2021/03/14 03:59:49;;;;;;;1.10;0.80;;;4.90;99.90;;;;;;4944759;29;20512;-84
2021/03/14 04:02:16;;;;;;;1.27;1.10;;;4.80;99.90;;;;;;4939646;29;20529;-84
2021/03/14 04:04:43;;;;;;;0.93;0.83;;;4.80;99.90;;;;;;4937922;29;20471;-84
2021/03/14 04:07:12;;;;;;;1.40;1.00;;;4.80;99.90;;;;;;4937714;29;20501;-84
2021/03/14 04:09:39;;;;;;;1.00;0.90;;;4.90;99.90;;;;;;4953188;29;20451;-84
2021/03/14 04:12:08;;;;;;;1.43;0.97;;;4.90;99.90;;;;;;4938370;29;20457;-84
2021/03/14 04:14:36;;;;;;;1.00;0.90;;;4.80;99.90;;;;;;4937511;29;20463;-84
2021/03/14 04:17:04;;;;;;;0.90;0.73;;;4.80;99.90;;;;;;4937051;29;20903;-84
2021/03/14 04:19:33;;;;;;;1.17;0.90;;;4.80;99.90;;;;;;4955267;29;20455;-84
2021/03/14 04:22:01;;;;;;;1.87;0.90;;;4.70;99.90;;;;;;4942075;29;20480;-84
2021/03/14 04:24:30;;;;;;;1.40;1.27;;;4.80;99.90;;;;;;4940533;29;20545;-84
2021/03/14 04:26:59;;;;;;;1.57;0.90;;;4.80;99.90;;;;;;4939831;29;20500;-84
2021/03/14 04:29:28;;;;;;;0.83;0.73;;;4.80;99.90;;;;;;4940147;29;20442;-84
2021/03/14 04:31:55;;;;;;;0.77;0.63;;;4.70;99.90;;;;;;4939794;29;20547;-84
2021/03/14 04:34:26;;;;;;;1.03;0.83;;;4.70;99.90;;;;;;4939990;29;20484;-84
2021/03/14 04:36:53;;;;;;;0.80;0.63;;;4.70;99.90;;;;;;4939257;29;20496;-84
2021/03/14 04:39:20;;;;;;;1.30;1.13;;;4.70;99.90;;;;;;4939831;29;20447;-84
2021/03/14 04:41:47;;;;;;;1.03;0.93;;;4.70;99.90;;;;;;4940490;29;20460;-84
2021/03/14 04:44:16;;;;;;;0.90;0.90;;;4.70;99.90;;;;;;4952021;29;20507;-83
2021/03/14 04:46:44;;;;;;;3.25;1.10;;;4.70;99.90;;;;;;4961756;29;20463;-83
2021/03/14 04:49:12;;;;;;;1.50;0.80;;;4.70;99.90;;;;;;4961254;29;20798;-84
2021/03/14 04:51:43;;;;;;;2.90;1.43;;;4.70;99.90;;;;;;4952132;29;20453;-84
2021/03/14 04:54:11;;;;;;;1.30;0.97;;;4.80;99.90;;;;;;4947412;29;20455;-84
2021/03/14 04:56:38;;;;;;;1.00;0.90;;;4.80;99.90;;;;;;4960757;28;20488;-84
2021/03/14 04:59:07;;;;;;;2.93;0.97;;;4.80;99.90;;;;;;4962199;28;20452;-83
2021/03/14 05:01:38;;;;;;;2.30;1.27;;;4.80;99.90;;;;;;4962871;28;20448;-83
2021/03/14 05:04:12;;;;;;;2.43;1.03;;;4.90;99.90;;;;;;4947473;29;20474;-90
2021/03/14 05:06:45;;;;;;;1.77;1.27;;;5.00;99.90;;;;;;4942001;29;20491;-89
2021/03/14 05:09:14;;;;;;;1.50;0.97;;;4.90;99.90;;;;;;4940487;29;20465;-85
2021/03/14 05:11:50;;;;;;;3.90;1.20;;;4.90;99.90;;;;;;4948730;29;20456;-91
2021/03/14 05:49:39;;;;;;;2.40;1.35;;;4.50;99.90;;;;;;4668290;30;20445;-87
2021/03/14 06:18:48;;;;;;;2.37;1.43;;;4.80;99.90;;;;;;4807862;29;20482;-86
2021/03/14 06:25:31;;;;;;;2.33;1.40;;;4.90;99.90;;;;;;4860182;29;20220;-86
2021/03/14 06:38:35;;;;;;;3.40;2.00;;;4.90;99.90;;;;;;4939541;23;20515;-87
2021/03/14 06:41:21;;;;;;;2.70;1.40;;;5.00;99.90;;;;;;4936010;29;20514;-90
2021/03/14 06:43:55;;;;;;;3.07;1.73;;;5.10;99.90;;;;;;4926348;29;20540;-88
2021/03/14 06:46:32;;;;;;;4.23;1.83;;;5.20;99.90;;;;;;4925697;29;20514;-87
2021/03/14 06:49:16;;;;;;;3.60;1.30;;;5.30;99.90;;;;;;4939710;29;20528;-88
2021/03/14 07:42:09;;;;;;;;;;;;;;;;;;;;;
2021/03/14 07:45:22;;;;;;;4.00;1.40;;;7.20;96.80;;;;;;4856252;29;20453;-86
2021/03/14 11:05:52;;;;;;;1.90;0.80;;;10.20;73.80;;;;;;977709;26;20747;-85
2021/03/14 11:14:27;;;;;;;2.30;1.10;;;13.00;65.30;;;;;;4944266;28;20478;-92
2021/03/14 11:17:10;;;;;;;1.57;1.07;;;12.80;63.30;;;;;;4937935;29;20497;-91
2021/03/14 11:19:39;;;;;;;9.17;3.13;;;12.30;62.20;;;;;;4941727;29;20439;-91
2021/03/14 11:22:07;;;;;;;3.50;1.80;;;11.70;63.90;;;;;;4943447;29;20549;-92
2021/03/14 11:24:34;;;;;;;5.33;2.13;;;11.00;65.30;;;;;;4960833;28;20442;-90
2021/03/14 11:27:01;;;;;;;6.50;4.07;;;10.70;67.10;;;;;;4959952;28;20462;-88
2021/03/14 11:29:28;;;;;;;14.70;7.50;;;10.40;68.10;;;;;;4954248;28;20505;-89
2021/03/14 11:31:55;;;;;;;6.47;2.80;;;10.30;69.00;;;;;;4959688;28;20482;-87
2021/03/14 11:34:25;;;;;;;8.83;4.77;;;10.10;68.60;;;;;;4959999;28;20458;-88
2021/03/14 11:36:51;;;;;;;5.30;2.30;;;9.90;71.00;;;;;;4955972;28;20575;-90
2021/03/14 11:39:19;;;;;;;7.17;3.73;;;10.10;69.40;;;;;;4957905;28;20433;-89
2021/03/14 11:41:46;;;;;;;5.60;2.83;;;10.80;68.00;;;;;;4956455;28;20542;-91
2021/03/14 11:44:16;;;;;;;3.30;2.20;;;11.30;66.00;;;;;;4955961;28;20434;-91
2021/03/14 11:46:45;;;;;;;3.50;1.53;;;11.40;65.10;;;;;;4952083;28;20449;-91
2021/03/14 11:49:11;;;;;;;2.80;1.13;;;11.10;64.00;;;;;;4952540;29;20473;-91
2021/03/14 11:51:38;;;;;;;2.83;1.30;;;10.50;62.90;;;;;;4953074;28;20489;-91
2021/03/14 11:54:05;;;;;;;4.07;1.50;;;10.10;66.20;;;;;;4947018;29;20454;-91
2021/03/14 11:56:34;;;;;;;4.17;1.27;;;9.90;68.80;;;;;;4954287;29;20488;-91
2021/03/14 11:59:00;;;;;;;4.43;1.47;;;10.00;68.30;;;;;;4938234;29;20450;-91
2021/03/14 12:01:26;;;;;;;4.77;1.27;;;9.90;68.60;;;;;;4941363;29;20569;-91
2021/03/14 12:03:53;;;;;;;2.03;1.40;;;9.90;69.40;;;;;;4938651;29;20474;-90
2021/03/14 12:06:20;;;;;;;3.20;1.50;;;9.90;69.50;;;;;;4938463;29;20442;-91
2021/03/14 12:08:46;;;;;;;3.80;1.77;;;9.80;69.50;;;;;;4948587;28;20437;-90
2021/03/14 12:11:14;;;;;;;2.87;2.07;;;9.90;69.80;;;;;;4942365;28;20470;-92
2021/03/14 12:13:41;;;;;;;4.00;2.30;;;9.90;70.00;;;;;;4939743;29;20477;-89
2021/03/14 12:16:08;;;;;;;4.10;3.13;;;9.90;70.50;;;;;;4942755;29;20450;-89
2021/03/14 12:18:36;;;;;;;6.57;2.77;;;9.90;70.80;;;;;;4944903;29;20458;-90
2021/03/14 12:21:02;;;;;;;6.07;2.90;;;9.90;72.30;;;;;;4946209;29;20478;-89
2021/03/14 12:23:29;;;;;;;4.73;2.43;;;9.80;74.20;;;;;;4941668;29;20466;-89
2021/03/14 12:25:56;;;;;;;2.57;1.33;;;9.80;74.70;;;;;;4940196;29;20434;-89
2021/03/14 12:28:24;;;;;;;5.20;1.63;;;9.80;75.00;;;;;;4941470;29;20453;-90
2021/03/14 12:30:52;;;;;;;2.93;1.27;;;9.80;76.40;;;;;;4948845;29;20462;-91
2021/03/14 12:33:32;;;;;;;;;;;;;;;;;;;;;
2021/03/14 12:36:11;;;;;;;4.80;2.80;;;9.70;77.90;;;;;;4955674;29;20436;-90
2021/03/14 12:38:37;;;;;;;12.90;6.40;;;9.70;79.00;;;;;;4948610;29;21017;-91
2021/03/14 12:41:04;;;;;;;14.43;7.20;;;9.60;80.10;;;;;;4955225;29;20450;-90
2021/03/14 12:43:32;;;;;;;10.00;5.40;;;9.40;83.10;;;;;;4954613;28;20466;-91
2021/03/14 12:46:04;;;;;;;5.73;3.47;;;8.90;87.50;;;;;;4951328;29;20453;-91
2021/03/14 12:48:31;;;;;;;2.57;1.57;;;8.60;90.40;;;;;;4958431;28;20466;-92
2021/03/14 12:50:59;;;;;;;5.73;2.63;;;8.30;92.00;;;;;;5154085;23;20502;-89
2021/03/14 12:53:25;;;;;;;9.10;3.60;;;8.00;92.80;;;;;;4933355;29;20530;-91
2021/03/14 12:55:55;;;;;;;1.73;1.60;;;7.90;93.80;;;;;;4938357;29;20430;-92
2021/03/14 12:58:21;;;;;;;3.90;1.93;;;7.60;93.00;;;;;;4936343;29;20447;-90
2021/03/14 13:00:48;;;;;;;6.80;2.70;;;7.40;94.00;;;;;;4936533;29;20454;-90
2021/03/14 13:03:16;;;;;;;9.27;5.50;;;7.30;95.40;;;;;;4928626;29;20478;-90
2021/03/14 13:05:43;;;;;;;3.37;1.53;;;7.30;96.30;;;;;;4934731;29;20458;-91
2021/03/14 13:08:10;;;;;;;7.80;2.37;;;7.00;95.90;;;;;;4930157;29;20465;-91
2021/03/14 13:10:46;;;;;;;6.57;3.23;;;6.80;96.50;;;;;;4936513;29;20503;-89
2021/03/14 13:13:12;;;;;;;11.13;3.03;;;6.70;97.60;;;;;;4944235;29;20456;-89
2021/03/14 13:15:39;;;;;;;6.20;2.77;;;6.70;98.20;;;;;;4943418;29;20863;-90
2021/03/14 13:18:07;;;;;;;4.00;2.10;;;6.90;98.70;;;;;;4936879;29;20509;-90
2021/03/14 13:20:34;;;;;;;2.40;1.20;;;6.90;97.50;;;;;;4935659;29;20530;-90
2021/03/14 13:23:01;;;;;;;2.20;1.03;;;7.00;97.50;;;;;;4928878;29;20466;-91
2021/03/14 13:31:01;;;;;;;2.77;1.10;;;7.40;98.30;;;;;;4906198;29;20450;-90
2021/03/14 13:33:31;;;;;;;1.83;1.40;;;7.50;97.20;;;;;;4922469;29;20467;-90
2021/03/14 13:36:16;;;;;;;2.20;1.20;;;7.60;96.90;;;;;;4926015;29;20447;-90
2021/03/14 13:38:43;;;;;;;2.73;1.00;;;7.60;95.80;;;;;;4924114;29;20485;-90
2021/03/14 13:41:16;;;;;;;1.80;0.80;;;7.70;96.50;;;;;;4927583;29;20478;-88
2021/03/14 13:43:42;;;;;;;2.70;1.10;;;7.60;96.40;;;;;;4933212;29;20461;-90
2021/03/14 13:46:11;;;;;;;4.20;1.30;;;7.50;96.20;;;;;;4930171;29;20446;-93
2021/03/14 13:48:47;;;;;;;2.77;1.70;;;7.50;97.00;;;;;;4931367;29;20451;-89
2021/03/14 13:54:18;;;;;;;2.47;1.47;;;7.30;98.00;;;;;;4882694;29;20547;-89
2021/03/14 13:56:47;;;;;;;4.00;1.60;;;7.00;98.40;;;;;;4926304;29;20479;-90
2021/03/14 13:59:37;;;;;;;3.90;1.97;;;6.90;99.00;;;;;;4924285;29;20447;-89
2021/03/14 14:09:14;;;;;;;6.90;2.20;;;6.70;99.90;;;;;;4762259;29;20442;-90
2021/03/14 14:12:13;;;;;;;2.50;1.53;;;6.70;99.90;;;;;;4927590;29;20455;-91
2021/03/14 14:14:42;;;;;;;10.23;1.97;;;6.60;99.90;;;;;;4921637;29;20462;-90
2021/03/14 14:17:09;;;;;;;2.80;1.43;;;6.40;99.90;;;;;;4922833;29;20506;-90
2021/03/14 14:19:35;;;;;;;5.97;2.03;;;6.30;99.90;;;;;;4925199;29;20437;-91
2021/03/14 14:22:04;;;;;;;3.10;1.40;;;6.30;99.90;;;;;;4924055;29;20477;-90
2021/03/14 14:24:33;;;;;;;2.37;2.00;;;6.20;99.90;;;;;;4922364;29;20506;-90
2021/03/14 14:27:00;;;;;;;3.77;1.93;;;6.30;99.90;;;;;;4922767;29;20534;-90
2021/03/14 14:29:26;;;;;;;8.90;2.13;;;6.30;99.90;;;;;;4922378;29;20482;-90
2021/03/14 14:31:53;;;;;;;5.90;2.40;;;6.30;99.90;;;;;;4933430;29;20457;-89
2021/03/14 14:34:19;;;;;;;5.73;2.47;;;6.10;99.90;;;;;;4927376;29;20431;-86
2021/03/14 14:36:45;;;;;;;12.63;4.97;;;6.00;99.90;;;;;;4919137;29;20477;-84
2021/03/14 14:39:11;;;;;;;10.20;7.27;;;6.00;99.90;;;;;;4919317;29;20508;-88
2021/03/14 14:41:38;;;;;;;4.33;3.53;;;6.10;99.90;;;;;;4922594;29;20450;-84
2021/03/14 14:44:13;;;;;;;6.13;2.73;;;6.20;99.90;;;;;;4923460;29;20465;-89
2021/03/14 14:46:41;;;;;;;3.70;2.50;;;6.30;99.90;;;;;;4923768;29;20454;-89
2021/03/14 14:49:09;;;;;;;7.63;3.73;;;6.30;99.90;;;;;;4923053;29;20490;-90
2021/03/14 14:51:35;;;;;;;7.27;5.10;;;6.50;99.90;;;;;;4921710;29;20463;-90
2021/03/14 14:54:02;;;;;;;2.80;2.03;;;6.60;99.90;;;;;;4924966;29;20959;-90
2021/03/14 14:56:31;;;;;;;3.90;2.30;;;6.60;99.90;;;;;;4929709;29;20559;-89
2021/03/14 14:59:02;;;;;;;5.23;3.63;;;6.70;99.90;;;;;;4939482;29;20482;-86
2021/03/14 15:01:28;;;;;;;2.60;2.40;;;6.70;99.90;;;;;;4940107;29;20487;-89
2021/03/14 15:03:54;;;;;;;3.23;2.67;;;6.70;99.90;;;;;;4939733;29;20466;-88
2021/03/14 15:06:24;;;;;;;5.27;2.70;;;6.70;99.90;;;;;;4929452;29;20454;-89
2021/03/14 15:08:51;;;;;;;5.30;2.77;;;6.60;99.90;;;;;;4923654;29;20439;-89
2021/03/14 15:11:17;;;;;;;3.07;2.27;;;6.60;99.90;;;;;;4925268;29;20534;-91
2021/03/14 15:13:43;;;;;;;4.33;2.37;;;6.60;99.90;;;;;;4933852;29;20463;-89
2021/03/14 15:16:11;;;;;;;7.80;2.60;;;6.50;99.90;;;;;;4938817;29;20509;-88
2021/03/14 15:18:40;;;;;;;6.50;3.90;;;6.30;99.90;;;;;;4926856;29;20446;-92
2021/03/14 15:21:07;;;;;;;4.00;2.40;;;6.30;99.90;;;;;;4921134;29;20451;-88
2021/03/14 15:23:34;;;;;;;4.60;2.33;;;6.40;99.90;;;;;;4925231;29;20478;-90
2021/03/14 15:26:00;;;;;;;3.80;3.17;;;6.50;99.90;;;;;;4920622;29;20454;-89
2021/03/14 15:28:27;;;;;;;3.63;2.70;;;6.60;99.90;;;;;;4921715;29;20447;-91
2021/03/14 15:30:55;;;;;;;7.83;5.93;;;6.70;99.90;;;;;;4922860;29;20470;-91
2021/03/14 15:33:23;;;;;;;9.40;5.90;;;6.60;99.90;;;;;;4923023;29;20478;-91
2021/03/14 15:35:49;;;;;;;9.10;5.00;;;6.60;99.90;;;;;;4925561;29;20556;-91
2021/03/14 15:38:17;;;;;;;6.43;4.60;;;6.60;99.90;;;;;;4936130;29;20467;-92
2021/03/14 15:40:47;;;;;;;3.43;3.13;;;6.60;99.90;;;;;;4941329;29;20462;-93
2021/03/14 15:43:30;;;;;;;3.00;2.00;;;6.60;99.90;;;;;;4940994;29;20459;-88
2021/03/14 15:49:24;;;;;;;4.03;2.63;;;6.50;99.90;;;;;;4935775;29;20510;-87
2021/03/14 15:51:50;;;;;;;2.27;2.07;;;6.50;99.90;;;;;;4939164;29;20479;-89
2021/03/14 15:54:21;;;;;;;2.50;2.30;;;6.50;99.90;;;;;;4928212;29;20462;-89
2021/03/14 15:57:03;;;;;;;5.07;3.77;;;6.60;99.90;;;;;;4929487;29;20486;-90
2021/03/14 15:59:30;;;;;;;3.73;2.50;;;6.60;99.90;;;;;;4923256;29;20478;-89
2021/03/14 16:01:56;;;;;;;2.50;2.13;;;6.60;99.90;;;;;;4922289;29;20451;-91
2021/03/14 16:04:24;;;;;;;5.70;3.30;;;6.70;99.90;;;;;;4926500;29;20484;-89
2021/03/14 16:06:52;;;;;;;9.57;4.50;;;6.60;99.90;;;;;;4936193;29;20439;-89
2021/03/14 16:12:17;;;;;;;7.00;5.37;;;6.50;99.90;;;;;;4929308;29;20469;-89
2021/03/14 16:14:46;;;;;;;6.43;5.57;;;6.50;99.90;;;;;;4926842;29;20469;-90
2021/03/14 16:17:15;;;;;;;17.10;10.30;;;6.50;99.90;;;;;;4929501;29;20486;-90
2021/03/14 16:19:56;;;;;;;12.80;8.80;;;6.60;99.90;;;;;;4932871;29;20976;-90
2021/03/14 16:22:41;;;;;;;7.60;5.20;;;6.60;99.90;;;;;;4928106;29;20534;-90
2021/03/14 16:25:53;;;;;;;5.97;4.07;;;6.50;99.90;;;;;;4927190;29;20458;-89
2021/03/14 16:28:33;;;;;;;6.10;4.53;;;6.60;99.90;;;;;;4928952;29;20494;-88
2021/03/14 16:31:10;;;;;;;4.97;4.03;;;6.60;99.90;;;;;;4934935;29;20438;-89
2021/03/14 16:33:44;;;;;;;3.87;3.27;;;6.60;99.90;;;;;;4929911;29;20466;-92
2021/03/14 16:36:18;;;;;;;4.47;3.23;;;6.60;99.90;;;;;;4939644;29;20506;-91
2021/03/14 16:38:45;;;;;;;4.33;3.93;;;6.50;99.90;;;;;;4932648;29;20439;-90
2021/03/14 16:41:12;;;;;;;5.30;4.67;;;6.60;99.90;;;;;;4935499;29;20450;-89
2021/03/14 16:43:44;;;;;;;7.93;5.40;;;6.60;99.90;;;;;;4939278;29;20474;-90
2021/03/14 16:46:15;;;;;;;9.17;6.77;;;6.50;99.90;;;;;;4936449;29;20458;-89
2021/03/14 16:48:41;;;;;;;4.23;3.77;;;6.30;99.90;;;;;;4943706;29;20449;-91
2021/03/14 16:51:07;;;;;;;6.73;6.10;;;6.20;99.90;;;;;;4932505;29;20533;-91
2021/03/14 16:53:35;;;;;;;12.50;7.83;;;6.20;99.90;;;;;;4933908;29;20484;-89
2021/03/14 16:56:03;;;;;;;9.33;5.80;;;6.10;99.90;;;;;;4932143;29;20453;-89
2021/03/14 16:58:29;;;;;;;10.83;7.43;;;6.00;99.90;;;;;;4935003;29;20530;-90
2021/03/14 17:00:56;;;;;;;17.27;10.13;;;5.90;99.90;;;;;;4937055;29;20450;-89
2021/03/14 17:03:22;;;;;;;10.00;9.00;;;5.90;99.90;;;;;;4934394;29;20449;-89
2021/03/14 17:05:48;;;;;;;6.70;6.10;;;5.80;99.90;;;;;;4929831;29;20476;-89
2021/03/14 17:08:15;;;;;;;8.30;6.53;;;5.70;99.90;;;;;;4932659;29;20533;-90
2021/03/14 17:10:51;;;;;;;8.80;6.10;;;5.60;99.90;;;;;;4936304;29;20432;-91
2021/03/14 17:13:17;;;;;;;8.50;6.63;;;5.60;99.90;;;;;;4938983;29;20473;-89
2021/03/14 17:15:45;;;;;;;8.97;6.40;;;5.60;99.90;;;;;;4937781;29;20459;-86
2021/03/14 17:18:20;;;;;;;7.33;5.67;;;5.50;99.90;;;;;;5102773;23;20577;-93
2021/03/14 17:20:49;;;;;;;5.83;4.70;;;5.40;99.90;;;;;;4939375;29;20429;-91
2021/03/14 17:23:17;;;;;;;7.43;5.73;;;5.40;99.90;;;;;;4939484;28;20460;-90
2021/03/14 17:25:46;;;;;;;7.93;6.03;;;5.30;99.90;;;;;;4924514;29;20462;-88
2021/03/14 17:28:14;;;;;;;10.77;7.57;;;5.20;99.90;;;;;;4936096;29;20499;-89
2021/03/14 17:30:41;;;;;;;16.70;9.40;;;5.20;99.90;;;;;;4937867;29;20454;-92
2021/03/14 17:33:08;;;;;;;19.53;11.77;;;5.10;99.90;;;;;;4921204;29;20470;-90
2021/03/14 17:35:35;;;;;;;16.20;11.03;;;5.20;99.90;;;;;;4938272;28;20455;-88
2021/03/14 17:38:02;;;;;;;16.73;11.60;;;5.10;99.90;;;;;;4941462;28;20517;-89
2021/03/14 17:40:31;;;;;;;13.97;8.40;;;5.00;99.90;;;;;;5210266;23;20490;-89
2021/03/14 17:42:59;;;;;;;12.23;7.37;;;4.90;99.90;;;;;;4939779;28;20447;-91
2021/03/14 17:45:26;;;;;;;17.40;8.10;;;4.80;99.90;;;;;;4936804;29;20451;-90
2021/03/14 17:47:52;;;;;;;10.10;6.37;;;4.80;99.90;;;;;;4936875;28;20474;-90
2021/03/14 17:50:20;;;;;;;8.63;5.67;;;4.80;99.90;;;;;;4938264;29;20446;-90
2021/03/14 17:52:49;;;;;;;7.03;5.03;;;4.80;99.90;;;;;;4938892;28;20467;-89
2021/03/14 17:58:36;;;;;;;6.80;5.10;;;4.80;99.90;;;;;;4935665;28;20549;-92
2021/03/14 18:01:06;;;;;;;5.93;4.90;;;4.80;99.90;;;;;;4936109;29;20494;-91
2021/03/14 19:18:29;;;;;;;4.90;4.03;;;5.20;99.90;;;;;;4665087;30;20494;-87
2021/03/14 19:32:00;;;;;;;6.80;5.60;;;5.20;99.90;;;;;;4761082;30;20442;-86
2021/03/14 19:41:50;;;;;;;5.83;4.07;;;5.50;99.90;;;;;;4759534;29;20457;-88
2021/03/14 19:44:17;;;;;;;10.70;5.20;;;5.60;99.90;;;;;;4802237;29;20452;-90
2021/03/14 19:46:44;;;;;;;9.00;6.63;;;5.60;99.90;;;;;;4875671;29;20443;-89
2021/03/14 19:49:12;;;;;;;13.27;7.50;;;5.70;99.90;;;;;;4895997;29;20442;-88
2021/03/14 19:51:38;;;;;;;14.10;9.10;;;5.70;99.90;;;;;;4905654;29;20756;-88
2021/03/14 19:54:05;;;;;;;11.03;6.60;;;5.80;99.90;;;;;;4907574;29;20479;-89
2021/03/14 19:56:32;;;;;;;15.03;9.10;;;5.80;99.90;;;;;;4918272;29;20442;-90
2021/03/14 19:58:59;;;;;;;12.00;8.30;;;5.80;99.90;;;;;;4921772;29;20475;-89
2021/03/14 20:01:25;;;;;;;13.73;9.40;;;5.90;99.90;;;;;;4911318;29;20451;-89
2021/03/14 20:03:53;;;;;;;9.13;5.37;;;5.90;99.90;;;;;;4920772;29;20448;-90
2021/03/14 20:06:22;;;;;;;11.27;6.70;;;5.90;99.90;;;;;;4913084;29;20447;-86
2021/03/14 20:08:52;;;;;;;8.10;5.67;;;6.00;99.90;;;;;;4905856;29;20518;-87
2021/03/14 20:11:18;;;;;;;4.47;4.07;;;6.10;99.90;;;;;;4914374;29;20463;-86
2021/03/14 20:13:44;;;;;;;4.50;3.10;;;6.10;99.90;;;;;;4912273;29;20474;-86
2021/03/14 20:16:11;;;;;;;4.63;3.17;;;6.10;99.90;;;;;;4906316;29;20454;-87
2021/03/14 20:18:38;;;;;;;5.43;3.80;;;6.00;99.90;;;;;;4905120;29;20578;-86
2021/03/14 20:21:05;;;;;;;6.23;3.27;;;5.80;99.90;;;;;;4905121;29;20447;-87
2021/03/14 20:23:31;;;;;;;3.00;2.33;;;5.60;99.90;;;;;;4902921;29;20478;-88
2021/03/14 20:25:59;;;;;;;5.10;2.93;;;5.50;99.90;;;;;;4910047;29;20542;-86
2021/03/14 20:28:25;;;;;;;4.53;3.00;;;5.40;99.90;;;;;;4905654;29;20451;-86
2021/03/14 20:30:53;;;;;;;6.30;4.77;;;5.20;99.90;;;;;;4904161;29;20458;-87
2021/03/14 20:33:20;;;;;;;5.20;3.27;;;5.10;99.90;;;;;;4904893;29;20472;-87
2021/03/14 20:35:46;;;;;;;4.33;3.50;;;5.10;99.90;;;;;;4902870;29;20502;-87
2021/03/14 20:38:15;;;;;;;6.47;3.63;;;5.10;99.90;;;;;;4905176;29;20607;-87
2021/03/14 20:40:42;;;;;;;9.80;4.37;;;5.00;99.90;;;;;;4908588;29;20466;-87